Terminal Aerodrome Forecast
Issued by NWS

Home | Current Version | Previous Version | Text Only | Print | Product List | Glossary On
Versions: 1 2 3 4 5 6 7 8 9 10 11 12 13 14 15 16 17
000
FTUS46 KMTR 060529
TAFSJC
TAF
KSJC 060529Z 0606/0706 30008KT P6SM SCT035 BKN050
     FM061200 14005KT P6SM SCT030 BKN050
     FM061500 14008KT P6SM -SHRA BKN025 OVC040
     FM062000 12006KT P6SM VCSH OVC025
     FM070300 32008KT P6SM BKN040=

USA.gov is the U.S. government's official web portal to all federal, state and local government web resources and services.